Time;durP1;ratioP1;P1;durP2;ratioP2;P2;SDS_P1;SDS_P2;PMS_P1;PMS_P2;Temp;Humidity;BMP_temperature;BMP_pressure;BME280_temperature;BME280_humidity;BME280_pressure;Samples;Min_cycle;Max_cycle;Signal;HPM_P1;HPM_P2
2023/08/01 00:01:51;;;;;;;1.77;1.25;;;;;;;16.27;100.00;97223.97;4189433;28;20090;-73
2023/08/01 00:03:52;;;;;;;3.60;1.65;;;;;;;16.29;100.00;97229.09;4188614;28;20782;-73
2023/08/01 00:05:54;;;;;;;2.70;1.50;;;;;;;16.26;100.00;97213.25;4189144;28;20630;-73
2023/08/01 00:07:55;;;;;;;2.13;1.40;;;;;;;16.28;100.00;97210.78;4189039;28;20428;-73
2023/08/01 00:09:55;;;;;;;2.25;1.67;;;;;;;16.31;100.00;97214.72;4189365;28;20079;-72
2023/08/01 00:11:55;;;;;;;3.92;1.80;;;;;;;16.28;100.00;97210.78;4189320;28;20041;-72
2023/08/01 00:13:56;;;;;;;3.88;1.67;;;;;;;16.30;100.00;97208.34;4187291;28;20143;-72
2023/08/01 00:15:56;;;;;;;2.03;1.63;;;;;;;16.33;100.00;97204.66;4188591;28;20552;-72
2023/08/01 00:17:56;;;;;;;4.03;1.77;;;;;;;16.33;100.00;97196.28;4189730;28;20080;-73
2023/08/01 00:19:57;;;;;;;2.78;1.77;;;;;;;16.32;100.00;97178.00;4188572;28;20039;-73
2023/08/01 00:21:57;;;;;;;3.42;1.83;;;;;;;16.33;100.00;97178.78;4188803;28;20094;-73
2023/08/01 00:23:57;;;;;;;3.65;1.60;;;;;;;16.29;100.00;97192.81;4188597;28;20136;-72
2023/08/01 00:25:58;;;;;;;2.85;1.75;;;;;;;16.25;100.00;97184.56;4188866;28;20047;-72
2023/08/01 00:27:58;;;;;;;3.75;1.75;;;;;;;16.20;100.00;97173.19;4188547;28;20032;-73
2023/08/01 00:29:58;;;;;;;1.90;1.60;;;;;;;16.20;100.00;97171.16;4189125;28;20519;-73
2023/08/01 00:31:59;;;;;;;3.95;1.95;;;;;;;16.25;100.00;97173.41;4188238;28;20072;-72
2023/08/01 00:33:59;;;;;;;2.65;1.90;;;;;;;16.29;100.00;97167.69;4189351;28;20048;-73
2023/08/01 00:36:00;;;;;;;2.70;1.75;;;;;;;16.26;100.00;97158.22;4188450;28;20092;-73
2023/08/01 00:38:00;;;;;;;2.10;1.50;;;;;;;16.31;100.00;97162.47;4188907;28;20094;-73
2023/08/01 00:40:00;;;;;;;3.63;1.48;;;;;;;16.32;100.00;97149.31;4188433;28;20045;-73
2023/08/01 00:42:01;;;;;;;3.13;1.63;;;;;;;16.38;100.00;97147.47;4187942;28;20047;-73
2023/08/01 00:44:01;;;;;;;6.63;1.85;;;;;;;16.36;100.00;97142.34;4187902;28;20100;-73
2023/08/01 00:46:04;;;;;;;2.90;1.60;;;;;;;16.40;100.00;97128.31;4192261;28;20025;-74
2023/08/01 00:48:05;;;;;;;2.08;1.58;;;;;;;16.33;100.00;97128.53;4191791;28;20036;-73
2023/08/01 00:50:06;;;;;;;2.70;1.63;;;;;;;16.24;100.00;97132.78;4190740;28;21183;-73
2023/08/01 00:52:08;;;;;;;2.20;1.60;;;;;;;16.23;100.00;97127.66;4191710;28;20036;-73
2023/08/01 00:54:09;;;;;;;2.08;1.65;;;;;;;16.21;100.00;97122.50;4190896;28;20032;-73
2023/08/01 00:56:09;;;;;;;3.35;1.95;;;;;;;16.18;100.00;97119.84;4191250;28;20039;-73
2023/08/01 00:58:09;;;;;;;2.70;1.80;;;;;;;16.18;100.00;97117.03;4191949;28;20068;-73
2023/08/01 01:00:10;;;;;;;2.28;1.73;;;;;;;16.16;100.00;97117.50;4192719;28;20036;-73
2023/08/01 01:02:11;;;;;;;3.78;1.77;;;;;;;16.18;100.00;97103.88;4191904;28;20078;-73
2023/08/01 01:04:12;;;;;;;2.53;1.70;;;;;;;16.16;100.00;97109.13;4192683;28;20028;-73
2023/08/01 01:06:18;;;;;;;3.90;1.77;;;;;;;16.14;100.00;97094.84;4191658;28;20419;-73
2023/08/01 01:08:19;;;;;;;2.20;1.70;;;;;;;16.13;100.00;97089.69;4191983;28;20067;-73
2023/08/01 01:10:19;;;;;;;2.35;1.63;;;;;;;16.15;100.00;97079.66;4191696;28;20047;-73
2023/08/01 01:12:20;;;;;;;2.88;1.80;;;;;;;16.17;100.00;97077.19;4191610;28;20028;-73
2023/08/01 01:14:20;;;;;;;3.03;1.73;;;;;;;16.24;100.00;97074.19;4191495;28;20048;-73
2023/08/01 01:16:21;;;;;;;2.38;1.50;;;;;;;16.31;100.00;97067.59;4191672;28;20101;-73
2023/08/01 01:18:21;;;;;;;3.50;1.80;;;;;;;16.30;100.00;97063.22;4191063;28;20056;-73
2023/08/01 01:20:24;;;;;;;2.50;1.55;;;;;;;16.31;100.00;97053.63;4190962;28;20087;-73
2023/08/01 01:22:25;;;;;;;3.17;1.60;;;;;;;16.26;100.00;97057.75;4190660;28;20060;-73
2023/08/01 01:24:27;;;;;;;1.63;1.23;;;;;;;16.27;100.00;97052.97;4190316;28;20045;-73
2023/08/01 01:26:28;;;;;;;3.33;1.55;;;;;;;16.28;100.00;97038.53;4190880;28;20060;-73
2023/08/01 01:28:30;;;;;;;1.92;1.73;;;;;;;16.31;100.00;97039.69;4190732;28;20056;-73
2023/08/01 01:30:33;;;;;;;4.03;1.85;;;;;;;16.24;100.00;97029.53;4191494;28;20044;-73
2023/08/01 01:32:34;;;;;;;;;;;;;;;16.25;100.00;97024.72;4191076;28;20443;-73
2023/08/01 01:34:34;;;;;;;2.13;1.52;;;;;;;16.25;100.00;97017.13;4190085;28;19924;-73
2023/08/01 01:36:34;;;;;;;2.30;1.35;;;;;;;16.24;100.00;97023.94;4192103;28;20093;-73
2023/08/01 01:38:35;;;;;;;2.22;1.52;;;;;;;16.22;100.00;97020.84;4193267;28;20044;-73
2023/08/01 01:40:35;;;;;;;3.85;1.40;;;;;;;16.17;100.00;97013.03;4191104;28;20087;-73
2023/08/01 01:42:36;;;;;;;1.90;1.30;;;;;;;16.17;100.00;97015.81;4189699;28;20121;-73
2023/08/01 01:44:36;;;;;;;3.63;1.45;;;;;;;16.16;100.00;96994.72;4191018;28;21514;-73
2023/08/01 01:46:37;;;;;;;3.45;1.58;;;;;;;16.18;100.00;96994.28;4190371;28;20043;-73
2023/08/01 01:48:37;;;;;;;2.92;1.50;;;;;;;16.19;100.00;97004.19;4190385;28;20257;-73
2023/08/01 01:50:37;;;;;;;2.05;1.20;;;;;;;16.19;100.00;96990.25;4190497;28;20143;-73
2023/08/01 01:52:38;;;;;;;2.30;1.70;;;;;;;16.15;100.00;96984.81;4190224;28;20048;-73
2023/08/01 01:54:38;;;;;;;1.42;0.98;;;;;;;16.11;100.00;96972.97;4191275;28;20041;-73
2023/08/01 01:56:38;;;;;;;1.70;1.35;;;;;;;16.07;100.00;96971.56;4188964;28;20052;-73
2023/08/01 01:58:39;;;;;;;2.85;1.38;;;;;;;16.07;100.00;96955.59;4191011;28;20476;-73
2023/08/01 02:00:39;;;;;;;1.50;1.10;;;;;;;16.10;100.00;96951.88;4190836;28;20079;-73
2023/08/01 02:02:39;;;;;;;1.35;0.90;;;;;;;16.05;100.00;96946.88;4189383;28;20345;-73
2023/08/01 02:04:40;;;;;;;1.95;1.00;;;;;;;16.07;100.00;96933.28;4191603;28;20391;-73
2023/08/01 02:06:40;;;;;;;1.50;0.80;;;;;;;16.11;100.00;96921.97;4191014;28;20049;-73
2023/08/01 02:08:40;;;;;;;1.23;0.90;;;;;;;16.09;100.00;96907.72;4191212;28;20044;-73
2023/08/01 02:10:41;;;;;;;1.48;1.05;;;;;;;16.10;100.00;96904.47;4190894;28;20448;-73
2023/08/01 02:12:41;;;;;;;1.50;0.90;;;;;;;16.17;100.00;96887.47;4189889;28;20052;-73
2023/08/01 02:14:41;;;;;;;0.82;0.80;;;;;;;16.18;100.00;96877.09;4190586;28;20044;-73
2023/08/01 02:16:42;;;;;;;1.67;0.98;;;;;;;16.23;100.00;96885.66;4190971;28;20059;-73
2023/08/01 02:18:42;;;;;;;1.45;0.70;;;;;;;16.24;100.00;96880.84;4190805;28;20051;-73
2023/08/01 02:20:42;;;;;;;0.95;0.82;;;;;;;16.19;100.00;96892.59;4190455;28;20047;-73
2023/08/01 02:22:42;;;;;;;0.70;0.50;;;;;;;16.20;100.00;96900.50;4189756;28;20064;-73
2023/08/01 02:24:43;;;;;;;1.67;0.65;;;;;;;16.21;100.00;96895.69;4190138;28;20106;-73
2023/08/01 02:26:43;;;;;;;2.38;0.70;;;;;;;16.26;100.00;96911.88;4190638;28;20631;-73
2023/08/01 02:28:44;;;;;;;0.65;0.65;;;;;;;16.21;100.00;96904.84;4190476;28;20127;-73
2023/08/01 02:30:44;;;;;;;0.60;0.60;;;;;;;16.21;100.00;96907.63;4190392;28;20120;-73
2023/08/01 02:32:44;;;;;;;0.55;0.50;;;;;;;16.20;100.00;96894.91;4189462;28;20131;-73
2023/08/01 02:34:44;;;;;;;0.65;0.52;;;;;;;16.21;100.00;96910.44;4190526;28;20452;-73
2023/08/01 02:36:45;;;;;;;0.82;0.60;;;;;;;16.23;100.00;96918.38;4190110;28;20128;-73
2023/08/01 02:38:45;;;;;;;0.65;0.52;;;;;;;16.24;100.00;96926.28;4190551;28;20134;-73
2023/08/01 02:40:45;;;;;;;0.60;0.60;;;;;;;16.26;100.00;96929.41;4190568;28;20044;-73
2023/08/01 02:42:46;;;;;;;1.70;0.60;;;;;;;16.20;100.00;96927.63;4189389;28;20040;-73
2023/08/01 02:44:46;;;;;;;0.90;0.60;;;;;;;16.16;100.00;96933.34;4190136;28;20048;-73
2023/08/01 02:46:46;;;;;;;1.05;0.75;;;;;;;16.18;100.00;96938.47;4190001;28;20503;-73
2023/08/01 02:48:47;;;;;;;0.73;0.50;;;;;;;16.18;100.00;96936.47;4189789;28;20044;-73
2023/08/01 02:50:47;;;;;;;0.80;0.45;;;;;;;16.18;100.00;96916.94;4191136;28;20087;-73
2023/08/01 02:52:47;;;;;;;1.70;0.55;;;;;;;16.16;100.00;96918.63;4190342;28;20082;-73
2023/08/01 02:54:48;;;;;;;0.85;0.68;;;;;;;16.15;100.00;96903.91;4189661;28;20040;-73
2023/08/01 02:56:48;;;;;;;1.75;0.65;;;;;;;16.16;100.00;96915.84;4190599;28;20045;-73
2023/08/01 02:58:48;;;;;;;4.70;0.70;;;;;;;16.15;100.00;96923.41;4189517;28;20044;-73
2023/08/01 03:00:49;;;;;;;1.00;0.60;;;;;;;16.14;100.00;96904.34;4188869;28;20048;-73
2023/08/01 03:02:49;;;;;;;0.88;0.60;;;;;;;16.13;100.00;96903.53;4189507;28;20130;-73
2023/08/01 03:04:49;;;;;;;0.60;0.50;;;;;;;16.11;100.00;96900.44;4189645;28;20109;-73
2023/08/01 03:06:50;;;;;;;1.95;0.50;;;;;;;16.09;100.00;96893.75;4189726;28;20360;-73
2023/08/01 03:08:51;;;;;;;0.98;0.60;;;;;;;16.04;100.00;96902.69;4189612;28;20455;-73
2023/08/01 03:10:51;;;;;;;0.60;0.60;;;;;;;16.07;100.00;96908.16;4190089;28;20051;-73
2023/08/01 03:12:51;;;;;;;2.10;0.60;;;;;;;16.06;100.00;96917.78;4188864;28;20434;-74
2023/08/01 03:14:52;;;;;;;2.13;0.70;;;;;;;16.00;100.00;96902.84;4189449;28;20051;-73
2023/08/01 03:16:52;;;;;;;2.08;0.80;;;;;;;16.00;100.00;96908.41;4171996;28;20041;-73
2023/08/01 03:18:52;;;;;;;1.20;0.73;;;;;;;15.94;100.00;96907.44;4189310;28;20543;-73
2023/08/01 03:20:53;;;;;;;1.27;0.80;;;;;;;15.92;100.00;96904.31;4189792;28;20040;-73
2023/08/01 03:22:53;;;;;;;1.58;0.77;;;;;;;15.90;100.00;96898.41;4189079;28;20071;-73
2023/08/01 03:24:54;;;;;;;2.53;0.85;;;;;;;15.86;100.00;96900.53;4189465;28;20044;-73
2023/08/01 03:26:54;;;;;;;2.90;1.00;;;;;;;15.83;100.00;96895.88;4189565;28;20045;-73
2023/08/01 03:28:56;;;;;;;1.35;0.70;;;;;;;15.80;100.00;96897.53;4189874;28;20290;-73
2023/08/01 03:30:56;;;;;;;1.60;0.80;;;;;;;15.80;100.00;96903.09;4189211;28;20487;-73
2023/08/01 03:32:56;;;;;;;2.03;0.70;;;;;;;15.73;100.00;96886.66;4187818;28;20048;-73
2023/08/01 03:34:56;;;;;;;3.95;1.17;;;;;;;15.68;100.00;96893.56;4189046;28;20102;-73
2023/08/01 03:36:57;;;;;;;1.17;0.80;;;;;;;15.69;100.00;96892.34;4191223;28;20123;-73
2023/08/01 03:38:58;;;;;;;4.80;0.80;;;;;;;15.69;100.00;96881.19;4189817;28;20120;-73
2023/08/01 03:40:58;;;;;;;4.13;0.80;;;;;;;15.69;100.00;96877.63;4190438;28;20053;-73
2023/08/01 03:42:58;;;;;;;2.13;0.63;;;;;;;15.66;100.00;96886.88;4189807;28;20041;-73
2023/08/01 03:44:59;;;;;;;2.75;1.17;;;;;;;15.64;100.00;96887.34;4188915;28;20428;-73
2023/08/01 03:46:59;;;;;;;1.95;0.70;;;;;;;15.66;100.00;96886.88;4189259;28;20132;-73
2023/08/01 03:48:59;;;;;;;1.40;0.73;;;;;;;15.66;100.00;96876.50;4189064;28;20082;-73
2023/08/01 03:51:00;;;;;;;1.17;0.50;;;;;;;15.69;100.00;96867.25;4189606;28;20481;-73
2023/08/01 03:53:00;;;;;;;0.80;0.40;;;;;;;15.67;100.00;96861.34;4188979;28;20050;-73
2023/08/01 03:55:01;;;;;;;1.33;0.60;;;;;;;15.70;100.00;96857.63;4189573;28;20080;-73
2023/08/01 03:57:02;;;;;;;0.63;0.52;;;;;;;15.72;100.00;96854.41;4189575;28;20083;-73
2023/08/01 03:59:04;;;;;;;1.55;0.50;;;;;;;15.74;100.00;96849.16;4189172;28;20044;-73
2023/08/01 04:01:06;;;;;;;1.50;0.50;;;;;;;15.77;100.00;96844.69;4188593;28;20036;-73
2023/08/01 04:03:06;;;;;;;1.13;0.77;;;;;;;15.81;100.00;96848.16;4189268;28;20048;-73
2023/08/01 04:05:08;;;;;;;1.02;0.40;;;;;;;15.79;100.00;96843.00;4190635;28;20071;-73
2023/08/01 04:07:09;;;;;;;0.93;0.40;;;;;;;15.80;100.00;96841.75;4189274;28;20048;-73
2023/08/01 04:09:09;;;;;;;0.45;0.40;;;;;;;15.79;100.00;96839.44;4189301;28;20036;-73
2023/08/01 04:11:11;;;;;;;0.73;0.50;;;;;;;15.78;100.00;96835.88;4171437;28;20076;-73
2023/08/01 04:13:11;;;;;;;1.13;0.50;;;;;;;15.77;100.00;96837.09;4187944;28;20101;-73
2023/08/01 04:15:11;;;;;;;0.30;0.30;;;;;;;15.74;100.00;96826.88;4189148;28;20271;-73
2023/08/01 04:17:12;;;;;;;1.25;0.60;;;;;;;15.77;100.00;96839.13;4188418;28;20605;-73
2023/08/01 04:19:13;;;;;;;0.73;0.50;;;;;;;15.76;100.00;96837.56;4188449;28;20106;-73
2023/08/01 04:21:14;;;;;;;0.57;0.50;;;;;;;15.72;100.00;96830.09;4188357;28;20044;-73
2023/08/01 04:23:15;;;;;;;0.52;0.40;;;;;;;15.73;100.00;96836.47;4187897;28;20543;-73
2023/08/01 04:25:15;;;;;;;1.02;0.47;;;;;;;15.69;100.00;96844.16;4189421;28;20055;-73
2023/08/01 04:27:15;;;;;;;0.40;0.40;;;;;;;15.69;100.00;96839.34;4188742;28;20049;-73
2023/08/01 04:29:17;;;;;;;1.42;0.73;;;;;;;15.69;100.00;96833.78;4188658;28;20047;-73
2023/08/01 04:31:18;;;;;;;1.27;0.55;;;;;;;15.70;100.00;96837.34;4189068;28;20300;-73
2023/08/01 04:33:18;;;;;;;2.35;0.50;;;;;;;15.64;100.00;96839.94;4188036;28;20044;-73
2023/08/01 04:35:18;;;;;;;1.70;0.60;;;;;;;15.64;100.00;96847.53;4188716;28;20832;-73
2023/08/01 04:37:22;;;;;;;1.30;0.40;;;;;;;15.63;100.00;96843.16;4189136;28;20135;-73
2023/08/01 04:39:22;;;;;;;0.50;0.40;;;;;;;15.61;100.00;96840.84;4189614;28;20037;-73
2023/08/01 04:41:23;;;;;;;0.50;0.45;;;;;;;15.61;100.00;96835.25;4189207;28;20129;-73
2023/08/01 04:43:23;;;;;;;2.05;0.60;;;;;;;15.64;100.00;96833.59;4187709;28;20056;-73
2023/08/01 04:45:23;;;;;;;1.50;0.47;;;;;;;15.67;100.00;96827.88;4187002;28;20049;-73
2023/08/01 04:47:24;;;;;;;0.40;0.40;;;;;;;15.67;100.00;96835.47;4188929;28;20040;-73
2023/08/01 04:49:24;;;;;;;2.65;0.40;;;;;;;15.69;100.00;96830.22;4189227;28;20060;-73
2023/08/01 04:51:25;;;;;;;0.80;0.50;;;;;;;15.71;100.00;96844.47;4186506;28;20131;-73
2023/08/01 04:53:25;;;;;;;1.83;0.43;;;;;;;15.71;100.00;96848.03;4189241;28;20483;-73
2023/08/01 04:55:25;;;;;;;3.75;0.60;;;;;;;15.70;100.00;96838.13;4161041;28;20049;-73
2023/08/01 04:57:26;;;;;;;0.45;0.40;;;;;;;15.68;100.00;96842.59;4156900;28;20041;-73
2023/08/01 04:59:26;;;;;;;1.58;0.57;;;;;;;15.71;100.00;96839.69;4185605;28;20045;-73
2023/08/01 05:01:26;;;;;;;8.50;0.93;;;;;;;15.71;100.00;96833.31;4185137;28;20037;-73
2023/08/01 05:03:27;;;;;;;1.67;0.60;;;;;;;15.72;100.00;96835.69;4187638;28;20132;-73
2023/08/01 05:05:27;;;;;;;1.50;0.50;;;;;;;15.72;100.00;96846.84;4188666;28;20321;-73
2023/08/01 05:07:27;;;;;;;1.83;0.70;;;;;;;15.80;100.00;96855.69;4188698;28;20045;-73
2023/08/01 05:09:28;;;;;;;4.18;0.82;;;;;;;15.73;100.00;96845.59;4187701;28;20036;-73
2023/08/01 05:11:28;;;;;;;5.78;0.90;;;;;;;15.75;100.00;96855.53;4188322;28;20388;-73
2023/08/01 05:13:28;;;;;;;4.90;1.77;;;;;;;15.69;100.00;96842.16;4187801;28;20143;-73
2023/08/01 05:15:29;;;;;;;2.25;0.90;;;;;;;15.62;100.00;96839.59;4188478;28;20076;-73
2023/08/01 05:17:29;;;;;;;3.65;1.10;;;;;;;15.60;100.00;96832.91;4188037;28;20048;-73
2023/08/01 05:19:29;;;;;;;1.88;0.80;;;;;;;15.58;100.00;96841.72;4188006;28;20044;-73
2023/08/01 05:21:30;;;;;;;2.50;0.77;;;;;;;15.59;100.00;96828.56;4188353;28;20045;-73
2023/08/01 05:23:30;;;;;;;2.72;0.90;;;;;;;15.62;100.00;96830.47;4183579;28;20530;-73
2023/08/01 05:25:30;;;;;;;3.75;1.00;;;;;;;15.59;100.00;96829.34;4186373;28;20132;-73
2023/08/01 05:27:31;;;;;;;2.13;0.90;;;;;;;15.58;100.00;96832.56;4187600;28;20099;-73
2023/08/01 05:29:31;;;;;;;1.98;1.05;;;;;;;15.58;100.00;96824.22;4188103;28;20109;-73
2023/08/01 05:31:31;;;;;;;2.13;0.80;;;;;;;15.59;100.00;96826.53;4191381;28;20347;-73
2023/08/01 05:33:32;;;;;;;1.50;0.82;;;;;;;15.56;100.00;96812.75;4190403;28;20046;-73
2023/08/01 05:35:32;;;;;;;3.17;0.93;;;;;;;15.61;100.00;96814.97;4191291;28;20048;-73
2023/08/01 05:37:32;;;;;;;2.53;0.80;;;;;;;15.59;100.00;96797.91;4172313;28;20048;-73
2023/08/01 05:39:33;;;;;;;3.58;0.93;;;;;;;15.64;100.00;96806.50;4191336;28;20044;-73
2023/08/01 05:41:33;;;;;;;4.53;1.33;;;;;;;15.70;100.00;96789.94;4190310;28;20304;-73
2023/08/01 05:43:33;;;;;;;3.35;1.20;;;;;;;15.71;100.00;96783.13;4189565;28;20047;-73
2023/08/01 05:45:35;;;;;;;3.30;1.13;;;;;;;15.73;100.00;96792.63;4191298;28;20041;-73
2023/08/01 05:47:36;;;;;;;4.32;1.10;;;;;;;15.77;100.00;96794.50;4190929;28;20028;-73
2023/08/01 05:49:36;;;;;;;2.83;0.85;;;;;;;15.75;100.00;96791.41;4190397;28;20045;-73
2023/08/01 05:51:37;;;;;;;5.10;1.10;;;;;;;15.76;100.00;96787.38;4190745;28;20041;-73
2023/08/01 05:53:37;;;;;;;2.78;0.88;;;;;;;15.81;100.00;96793.16;4189804;28;20040;-73
2023/08/01 05:55:37;;;;;;;3.63;0.90;;;;;;;15.81;100.00;96793.16;4190628;28;20070;-73
2023/08/01 05:57:38;;;;;;;2.65;0.90;;;;;;;15.81;100.00;96814.69;4191518;28;20307;-73
2023/08/01 05:59:38;;;;;;;1.70;1.05;;;;;;;15.78;100.00;96826.72;4172443;28;20071;-73
2023/08/01 06:01:39;;;;;;;3.53;1.00;;;;;;;15.75;100.00;96819.28;4191546;28;20043;-73
2023/08/01 06:03:39;;;;;;;3.00;1.17;;;;;;;15.78;100.00;96835.09;4190799;28;20041;-73
2023/08/01 06:05:39;;;;;;;6.18;2.10;;;;;;;15.77;100.00;96816.81;4191013;28;20074;-74
2023/08/01 06:07:40;;;;;;;5.15;1.73;;;;;;;15.75;100.00;96806.09;4190913;28;20059;-73
2023/08/01 06:09:40;;;;;;;5.65;1.33;;;;;;;15.75;100.00;96813.69;4190032;28;20102;-73
2023/08/01 06:11:41;;;;;;;2.97;1.23;;;;;;;15.74;100.00;96812.94;4190913;28;20127;-73
2023/08/01 06:13:41;;;;;;;3.40;1.17;;;;;;;15.75;100.00;96808.13;4190294;28;20133;-73
2023/08/01 06:15:41;;;;;;;1.98;0.82;;;;;;;15.82;100.00;96807.88;4191281;28;20057;-73
2023/08/01 06:17:41;;;;;;;5.32;1.00;;;;;;;15.83;100.00;96798.28;4191067;28;20477;-73
2023/08/01 06:19:42;;;;;;;2.90;0.95;;;;;;;15.87;100.00;96812.84;4191299;28;20277;-73
2023/08/01 06:21:42;;;;;;;3.17;0.75;;;;;;;15.85;100.00;96812.53;4190612;28;20051;-73
2023/08/01 06:23:43;;;;;;;0.95;0.50;;;;;;;15.86;100.00;96803.72;4190161;28;20346;-73
2023/08/01 06:25:43;;;;;;;2.47;0.90;;;;;;;15.88;100.00;96801.22;4172253;28;20052;-73
2023/08/01 06:27:43;;;;;;;2.92;0.80;;;;;;;15.87;100.00;96796.13;4190383;28;20537;-73
2023/08/01 06:29:43;;;;;;;3.60;0.93;;;;;;;15.89;100.00;96797.25;4187831;28;20128;-73
2023/08/01 06:31:44;;;;;;;1.45;0.73;;;;;;;15.85;100.00;96784.66;4189477;28;20051;-73
2023/08/01 06:33:45;;;;;;;3.80;1.13;;;;;;;15.88;100.00;96784.50;4186446;28;20076;-74
2023/08/01 06:35:45;;;;;;;1.48;0.70;;;;;;;15.92;100.00;96776.81;4183247;28;20040;-73
2023/08/01 06:37:47;;;;;;;2.13;0.90;;;;;;;16.01;100.00;96751.75;4182374;28;20163;-73
2023/08/01 06:39:47;;;;;;;1.35;0.75;;;;;;;16.12;100.00;96719.88;4163930;28;20127;-73
2023/08/01 06:41:48;;;;;;;0.82;0.65;;;;;;;16.15;100.00;96719.75;4167257;28;20033;-73
2023/08/01 06:43:48;;;;;;;2.80;0.73;;;;;;;16.17;100.00;96739.59;4171872;28;20374;-73
2023/08/01 06:45:48;;;;;;;4.57;0.93;;;;;;;16.18;100.00;96752.31;4189710;28;20040;-73
2023/08/01 06:47:49;;;;;;;3.53;0.60;;;;;;;16.14;100.00;96762.06;4188920;28;20176;-73
2023/08/01 06:49:49;;;;;;;1.67;0.75;;;;;;;16.09;100.00;96757.84;4170283;28;20052;-73
2023/08/01 06:51:49;;;;;;;1.65;0.82;;;;;;;16.09;100.00;96734.75;4189248;28;20057;-73
2023/08/01 06:53:50;;;;;;;1.50;0.50;;;;;;;16.08;100.00;96742.34;4167678;28;20033;-73
2023/08/01 06:55:50;;;;;;;1.52;0.50;;;;;;;16.17;100.00;96749.97;4173301;28;20056;-73
2023/08/01 06:57:50;;;;;;;3.20;0.88;;;;;;;16.21;100.00;96768.13;4189822;28;20075;-73
2023/08/01 06:59:51;;;;;;;2.20;0.70;;;;;;;16.24;100.00;96752.50;4173216;28;20037;-73
2023/08/01 07:01:51;;;;;;;3.58;0.95;;;;;;;16.25;100.00;96752.03;4172028;28;20556;-73
2023/08/01 07:03:52;;;;;;;2.03;0.82;;;;;;;16.34;100.00;96742.94;4188389;28;20050;-73
2023/08/01 07:05:52;;;;;;;2.75;0.80;;;;;;;16.40;100.00;96724.34;4172746;28;20041;-73
2023/08/01 07:07:52;;;;;;;1.17;0.80;;;;;;;16.51;100.00;96733.06;4170906;28;20033;-73
2023/08/01 07:09:53;;;;;;;2.83;0.88;;;;;;;16.57;100.00;96747.22;4190646;28;20094;-73
2023/08/01 07:11:53;;;;;;;3.70;0.65;;;;;;;16.59;100.00;96747.53;4170925;28;20053;-73
2023/08/01 07:13:53;;;;;;;2.05;0.77;;;;;;;16.56;100.00;96746.44;4188954;28;20044;-73
2023/08/01 07:15:54;;;;;;;0.52;0.50;;;;;;;16.58;100.00;96755.13;4190326;28;20791;-73
2023/08/01 07:17:54;;;;;;;1.17;0.65;;;;;;;16.55;100.00;96777.63;4189517;28;20047;-73
2023/08/01 07:19:55;;;;;;;2.88;0.70;;;;;;;16.56;100.00;96765.22;4189740;28;20058;-73
2023/08/01 07:21:55;;;;;;;1.45;0.90;;;;;;;16.54;100.00;96764.88;4189341;28;20036;-73
2023/08/01 07:23:57;;;;;;;1.42;0.90;;;;;;;16.54;100.00;96750.91;4189026;28;20046;-73
2023/08/01 07:25:58;;;;;;;0.95;0.63;;;;;;;16.52;100.00;96756.19;4171360;28;20049;-73
2023/08/01 07:27:58;;;;;;;1.42;0.70;;;;;;;16.52;100.00;96773.72;4171500;28;20284;-73
2023/08/01 07:29:58;;;;;;;1.25;0.82;;;;;;;16.52;100.00;96770.91;4189901;28;20055;-73
2023/08/01 07:31:58;;;;;;;2.30;0.60;;;;;;;16.52;100.00;96784.88;4189384;28;20051;-73
2023/08/01 07:33:59;;;;;;;2.13;0.75;;;;;;;16.49;100.00;96779.44;4188791;28;20068;-73
2023/08/01 07:36:00;;;;;;;1.08;0.82;;;;;;;16.49;100.00;96771.84;4171997;28;20377;-73
2023/08/01 07:38:00;;;;;;;1.35;0.80;;;;;;;16.46;100.00;96781.13;4189510;28;20041;-73
2023/08/01 07:40:00;;;;;;;1.77;0.82;;;;;;;16.49;100.00;96787.81;4189418;28;20445;-73
2023/08/01 07:42:01;;;;;;;0.88;0.63;;;;;;;16.49;100.00;96791.38;4189329;28;20064;-73
2023/08/01 07:44:03;;;;;;;1.90;0.80;;;;;;;16.46;100.00;96780.34;4188723;28;20090;-74
2023/08/01 07:46:03;;;;;;;1.40;0.98;;;;;;;16.43;100.00;96776.47;4171063;28;20025;-73
2023/08/01 07:48:04;;;;;;;2.72;0.93;;;;;;;16.40;100.00;96773.81;4171310;28;20120;-74
2023/08/01 07:50:05;;;;;;;1.80;0.68;;;;;;;16.40;100.00;96785.75;4187483;28;20948;-74
2023/08/01 07:52:06;;;;;;;2.40;0.90;;;;;;;16.35;100.00;96793.94;4171032;28;20128;-74
2023/08/01 07:54:06;;;;;;;1.40;0.98;;;;;;;16.26;100.00;96794.66;4188545;28;20483;-74
2023/08/01 07:56:08;;;;;;;1.10;0.90;;;;;;;16.25;100.00;96793.91;4171230;28;20965;-74
2023/08/01 07:58:08;;;;;;;1.05;0.82;;;;;;;16.15;100.00;96792.28;4187946;28;20035;-74
2023/08/01 08:00:09;;;;;;;2.67;1.20;;;;;;;16.00;100.00;96805.22;4171051;28;20454;-74
2023/08/01 08:02:10;;;;;;;5.78;4.47;;;;;;;16.01;100.00;96813.13;4188775;28;20037;-74
2023/08/01 08:04:10;;;;;;;2.38;1.52;;;;;;;15.97;100.00;96817.25;4170518;28;20407;-74
2023/08/01 08:06:11;;;;;;;3.38;1.30;;;;;;;15.75;100.00;96810.91;4170691;28;20114;-74
2023/08/01 08:08:11;;;;;;;2.50;0.90;;;;;;;15.56;100.00;96788.44;4189262;28;20036;-74
2023/08/01 08:10:11;;;;;;;1.23;0.80;;;;;;;15.54;100.00;96795.66;4189179;28;20489;-74
2023/08/01 08:12:12;;;;;;;1.50;0.82;;;;;;;15.39;100.00;96775.88;4189443;28;20040;-74
2023/08/01 08:14:14;;;;;;;1.85;1.30;;;;;;;15.28;100.00;96779.03;4188507;28;20356;-73
2023/08/01 08:16:14;;;;;;;4.25;1.10;;;;;;;15.25;100.00;96796.66;4189139;28;20506;-74
2023/08/01 08:18:15;;;;;;;2.00;0.70;;;;;;;15.16;100.00;96794.56;4171308;28;20024;-74
2023/08/01 08:20:15;;;;;;;1.17;0.70;;;;;;;15.09;100.00;96810.75;4170532;28;20032;-74
2023/08/01 08:22:15;;;;;;;2.25;0.93;;;;;;;14.96;100.00;96801.59;4188965;28;20045;-74
2023/08/01 08:24:16;;;;;;;1.15;0.73;;;;;;;14.81;100.00;96792.94;4170549;28;20037;-74
2023/08/01 08:26:16;;;;;;;2.75;1.00;;;;;;;14.65;100.00;96795.88;4171145;28;20094;-74
2023/08/01 08:28:29;;;;;;;2.35;1.00;;;;;;;14.67;100.00;96805.31;4188736;28;20035;-74
2023/08/01 08:30:29;;;;;;;2.60;0.73;;;;;;;14.68;100.00;96797.75;4189140;28;20098;-74
2023/08/01 08:32:30;;;;;;;3.47;1.10;;;;;;;14.76;100.00;96801.88;4188634;28;20476;-73
2023/08/01 08:34:30;;;;;;;3.13;0.82;;;;;;;14.83;100.00;96805.19;4170572;28;20033;-73
2023/08/01 08:36:30;;;;;;;1.30;1.00;;;;;;;14.93;100.00;96806.06;4188603;28;20458;-73
2023/08/01 08:38:31;;;;;;;2.38;1.10;;;;;;;15.03;100.00;96807.72;4189173;28;20453;-73
2023/08/01 08:40:39;;;;;;;1.70;1.00;;;;;;;15.09;100.00;96805.94;4188746;28;20487;-74
2023/08/01 08:42:40;;;;;;;2.58;0.82;;;;;;;15.23;100.00;96801.13;4169193;28;20041;-73
2023/08/01 08:44:43;;;;;;;2.05;0.98;;;;;;;15.41;100.00;96813.22;4171267;28;20152;-73
2023/08/01 08:46:46;;;;;;;1.58;1.08;;;;;;;15.60;100.00;96816.94;4189060;28;20450;-73
2023/08/01 08:48:47;;;;;;;3.17;1.23;;;;;;;15.76;100.00;96812.47;4170618;28;20053;-73
2023/08/01 08:50:49;;;;;;;2.15;1.20;;;;;;;15.90;100.00;96820.31;4188631;28;20029;-73
2023/08/01 08:52:50;;;;;;;1.40;1.10;;;;;;;16.01;100.00;96827.06;4170464;28;20049;-73
2023/08/01 08:54:52;;;;;;;3.05;1.33;;;;;;;16.14;100.00;96838.16;4188952;28;20036;-73
2023/08/01 08:56:53;;;;;;;1.52;1.20;;;;;;;16.19;100.00;96828.41;4188675;28;20769;-73
2023/08/01 08:58:53;;;;;;;1.83;1.40;;;;;;;16.31;100.00;96824.78;4170729;28;20044;-73
2023/08/01 09:00:54;;;;;;;1.42;1.13;;;;;;;16.36;100.00;96828.97;4189005;28;20121;-73
2023/08/01 09:02:55;;;;;;;3.58;1.92;;;;;;;16.45;100.00;96848.56;4188321;28;20052;-73
2023/08/01 09:04:57;;;;;;;1.70;1.23;;;;;;;16.39;100.00;96847.63;4188373;28;20044;-73
2023/08/01 09:07:03;;;;;;;1.63;1.33;;;;;;;16.23;100.00;96860.56;4191810;28;20051;-73
2023/08/01 09:09:06;;;;;;;2.70;1.92;;;;;;;16.07;100.00;96862.75;4175221;28;20049;-73
2023/08/01 09:11:07;;;;;;;1.83;1.50;;;;;;;15.97;100.00;96868.25;4174357;28;20775;-73
2023/08/01 09:13:08;;;;;;;1.90;1.30;;;;;;;15.89;100.00;96871.75;4190572;28;20135;-73
2023/08/01 09:15:10;;;;;;;1.98;1.50;;;;;;;15.61;100.00;96882.66;4192083;28;20083;-73
2023/08/01 09:17:11;;;;;;;2.50;1.52;;;;;;;15.53;100.00;96870.16;4191777;28;20186;-73
2023/08/01 09:19:15;;;;;;;3.35;1.88;;;;;;;15.50;100.00;96884.22;4191950;28;20044;-72
2023/08/01 09:21:20;;;;;;;2.90;1.80;;;;;;;15.56;100.00;96888.78;4191595;28;20059;-73